Onslow, Australia
Current Conditions -  °F | °C
As of 7:00 AM on Saturday 25 Oct 2014 (Local Time) from YPLM Reporting Station
Clear Clear  
Wind Chill: 68°   Ceiling: Unl
Heat Index: 68°   Visibility: 6mi
Dew Point: 57°   Wind: 15mph
Humidity: 68%   Direction: 180°S
Pressure: 30.03"   Gusts: NA
Location:  21.64°S, 115.11°E
Report Text: YPLM 242300Z AUTO 18013KT 9999 // NCD 20/14 Q1017
Loading
Personal Weather Stations






























Interactive Weather Map
Tropical Storm Tracking
New forecast layout! Learn more

10-Day Weather Forecast

Advertisements
Track Severe Weather on mobile